createdAt,value
2023-03-26T00:00:17.609Z,97.02
2023-03-26T00:03:26.752Z,96.71
2023-03-26T00:06:34.487Z,96.15
2023-03-26T00:09:44.557Z,96.15
2023-03-26T00:12:53.231Z,96.15
2023-03-26T00:16:00.536Z,96.25
2023-03-26T00:19:08.181Z,96.77
2023-03-26T00:22:15.525Z,96.97
2023-03-26T00:25:24.560Z,96.97
2023-03-26T00:28:32.237Z,96.67
2023-03-26T00:31:39.502Z,96.67
2023-03-26T00:34:48.970Z,96.46
2023-03-26T00:37:57.282Z,96.25
2023-03-26T00:41:04.311Z,95.84
2023-03-26T00:44:13.286Z,95.18
2023-03-26T00:47:20.965Z,94.98
2023-03-26T00:50:28.087Z,95.08
2023-03-26T00:53:37.498Z,94.87
2023-03-26T00:56:45.583Z,95.08
2023-03-26T00:59:52.760Z,95.90
2023-03-26T01:03:01.118Z,97.14
2023-03-26T01:06:10.060Z,98.00
2023-03-26T01:09:17.591Z,98.62
2023-03-26T01:12:24.919Z,99.24
2023-03-26T01:15:33.648Z,99.76
2023-03-26T01:18:40.943Z,99.99
2023-03-26T01:21:48.280Z,99.99
2023-03-26T01:24:57.164Z,99.99
2023-03-26T01:28:04.500Z,99.99
2023-03-26T01:31:11.686Z,99.99
2023-03-26T01:34:21.106Z,99.99
2023-03-26T01:37:29.090Z,99.99
2023-03-26T01:40:36.177Z,99.99
2023-03-26T01:43:45.418Z,99.99
2023-03-26T01:46:52.923Z,99.99
2023-03-26T01:50:00.278Z,99.99
2023-03-26T01:53:07.959Z,99.99
2023-03-26T01:56:16.758Z,99.99
2023-03-26T01:59:24.041Z,99.99
2023-03-26T02:02:31.489Z,99.99
2023-03-26T02:05:40.529Z,99.99
2023-03-26T02:08:48.096Z,99.99
2023-03-26T02:11:55.699Z,99.99
2023-03-26T02:15:04.746Z,99.99
2023-03-26T02:18:12.236Z,99.99
2023-03-26T02:21:19.745Z,99.99
2023-03-26T02:24:28.794Z,99.99
2023-03-26T02:27:35.759Z,99.58
2023-03-26T02:30:43.421Z,98.97
2023-03-26T02:33:51.077Z,98.76
2023-03-26T02:36:59.491Z,98.55
2023-03-26T02:40:07.277Z,98.45
2023-03-26T02:43:14.656Z,98.45
2023-03-26T02:46:23.881Z,98.39
2023-03-26T02:49:31.185Z,98.24
2023-03-26T02:52:38.725Z,98.50
2023-03-26T02:55:47.947Z,98.50
2023-03-26T02:58:55.076Z,98.50
2023-03-26T03:02:02.452Z,98.29
2023-03-26T03:05:11.449Z,98.39
2023-03-26T03:08:18.621Z,98.29
2023-03-26T03:11:26.546Z,98.19
2023-03-26T03:14:34.061Z,98.19
2023-03-26T03:17:42.312Z,97.88
2023-03-26T03:20:50.135Z,98.08
2023-03-26T03:23:59.925Z,98.08
2023-03-26T03:26:58.185Z,98.19
2023-03-26T03:30:05.960Z,97.88
2023-03-26T03:33:13.704Z,97.67
2023-03-26T03:36:22.339Z,97.36
2023-03-26T03:39:30.119Z,96.95
2023-03-26T03:42:37.484Z,96.64
2023-03-26T03:45:46.365Z,96.39
2023-03-26T03:48:54.360Z,96.44
2023-03-26T03:52:01.338Z,96.49
2023-03-26T03:55:09.071Z,96.18
2023-03-26T03:58:18.253Z,96.18
2023-03-26T04:01:25.494Z,95.98
2023-03-26T04:04:33.116Z,95.98
2023-03-26T04:07:41.938Z,95.98
2023-03-26T04:10:49.727Z,95.87
2023-03-26T04:13:57.181Z,96.08
2023-03-26T04:17:05.784Z,96.39
2023-03-26T04:20:13.198Z,96.28
2023-03-26T04:23:20.646Z,96.39
2023-03-26T04:26:29.419Z,96.59
2023-03-26T04:29:37.451Z,96.70
2023-03-26T04:32:44.480Z,96.80
2023-03-26T04:35:51.791Z,96.80
2023-03-26T04:39:00.913Z,96.91
2023-03-26T04:42:07.947Z,97.01
2023-03-26T04:45:15.502Z,96.91
2023-03-26T04:48:24.604Z,96.91
2023-03-26T04:51:31.552Z,96.91
2023-03-26T04:54:39.257Z,96.70
2023-03-26T04:57:47.979Z,96.59
2023-03-26T05:00:55.125Z,96.80
2023-03-26T05:04:02.889Z,96.39
2023-03-26T05:07:11.610Z,96.08
2023-03-26T05:10:19.325Z,95.87
2023-03-26T05:13:26.974Z,96.08
2023-03-26T05:16:36.014Z,96.18
2023-03-26T05:19:43.388Z,96.33
2023-03-26T05:22:50.584Z,96.12
2023-03-26T05:25:57.971Z,95.71
2023-03-26T05:29:06.891Z,95.81
2023-03-26T05:32:14.000Z,95.61
2023-03-26T05:35:21.435Z,95.81
2023-03-26T05:38:31.017Z,95.86
2023-03-26T05:41:38.001Z,96.06
2023-03-26T05:44:45.709Z,95.96
2023-03-26T05:47:54.979Z,95.92
2023-03-26T05:51:02.044Z,95.92
2023-03-26T05:54:09.568Z,95.46
2023-03-26T05:57:18.404Z,94.70
2023-03-26T06:00:25.720Z,94.38
2023-03-26T06:03:33.453Z,94.70
2023-03-26T06:06:40.973Z,94.38
2023-03-26T06:09:49.964Z,94.49
2023-03-26T06:12:57.170Z,93.77
2023-03-26T06:16:04.325Z,93.83
2023-03-26T06:19:13.764Z,93.52
2023-03-26T06:22:21.089Z,93.99
2023-03-26T06:25:28.576Z,93.79
2023-03-26T06:28:37.642Z,93.48
2023-03-26T06:31:44.782Z,93.95
2023-03-26T06:34:52.112Z,93.23
2023-03-26T06:38:01.324Z,93.33
2023-03-26T06:41:08.347Z,93.74
2023-03-26T06:44:16.161Z,93.23
2023-03-26T06:47:24.164Z,93.02
2023-03-26T06:50:32.626Z,93.43
2023-03-26T06:53:40.130Z,93.59
2023-03-26T06:56:47.481Z,92.87
2023-03-26T06:59:56.094Z,92.77
2023-03-26T07:03:03.413Z,92.77
2023-03-26T07:06:10.679Z,91.95
2023-03-26T07:09:19.484Z,91.91
2023-03-26T07:12:26.677Z,91.29
2023-03-26T07:15:34.084Z,91.08
2023-03-26T07:18:42.974Z,91.08
2023-03-26T07:21:50.324Z,91.19
2023-03-26T07:24:58.035Z,89.03
2023-03-26T07:28:05.179Z,88.82
2023-03-26T07:31:13.969Z,88.82
2023-03-26T07:34:21.200Z,88.41
2023-03-26T07:37:28.448Z,88.10
2023-03-26T07:40:37.138Z,88.78
2023-03-26T07:43:44.897Z,88.27
2023-03-26T07:46:51.855Z,89.36
2023-03-26T07:50:00.963Z,88.74
2023-03-26T07:53:08.316Z,88.64
2023-03-26T07:56:15.221Z,87.92
2023-03-26T07:59:24.411Z,86.79
2023-03-26T08:02:31.653Z,86.79
2023-03-26T08:05:38.987Z,88.43
2023-03-26T08:08:47.812Z,88.74
2023-03-26T08:11:55.211Z,88.39
2023-03-26T08:15:02.526Z,87.51
2023-03-26T08:18:09.920Z,88.29
2023-03-26T08:21:18.227Z,88.39
2023-03-26T08:24:25.826Z,87.46
2023-03-26T08:27:33.136Z,87.98
2023-03-26T08:30:41.774Z,87.05
2023-03-26T08:33:49.499Z,87.57
2023-03-26T08:36:56.454Z,88.18
2023-03-26T08:40:05.642Z,86.44
2023-03-26T08:43:13.709Z,87.05
2023-03-26T08:46:20.882Z,85.82
2023-03-26T08:49:30.032Z,85.89
2023-03-26T08:52:38.032Z,85.13
2023-03-26T08:55:44.932Z,84.52
2023-03-26T08:58:52.328Z,84.31
2023-03-26T09:02:01.042Z,83.86
2023-03-26T09:05:08.329Z,85.36
2023-03-26T09:08:15.934Z,82.90
2023-03-26T09:11:24.642Z,82.59
2023-03-26T09:14:32.476Z,82.90
2023-03-26T09:17:40.009Z,83.98
2023-03-26T09:20:48.466Z,83.33
2023-03-26T09:23:55.550Z,81.56
2023-03-26T09:27:02.498Z,80.83
2023-03-26T09:30:11.058Z,83.36
2023-03-26T09:33:18.447Z,81.99
2023-03-26T09:36:25.326Z,80.56
2023-03-26T09:39:32.750Z,79.68
2023-03-26T09:42:41.543Z,81.88
2023-03-26T09:45:48.438Z,80.39
2023-03-26T09:48:55.838Z,80.39
2023-03-26T09:52:04.690Z,80.19
2023-03-26T09:55:12.013Z,80.29
2023-03-26T09:58:19.688Z,79.27
2023-03-26T10:01:28.415Z,78.24
2023-03-26T10:04:35.802Z,81.48
2023-03-26T10:07:43.314Z,80.05
2023-03-26T10:10:52.229Z,81.03
2023-03-26T10:13:59.352Z,79.19
2023-03-26T10:17:06.849Z,76.47
2023-03-26T10:20:14.125Z,79.27
2023-03-26T10:23:22.777Z,76.16
2023-03-26T10:26:30.088Z,78.20
2023-03-26T10:29:37.594Z,79.02
2023-03-26T10:32:46.282Z,75.75
2023-03-26T10:35:53.278Z,78.88
2023-03-26T10:39:01.046Z,79.97
2023-03-26T10:42:09.325Z,77.93
2023-03-26T10:45:16.576Z,78.09
2023-03-26T10:48:24.243Z,77.96
2023-03-26T10:51:32.620Z,76.26
2023-03-26T10:54:40.379Z,78.00
2023-03-26T10:57:48.071Z,77.59
2023-03-26T11:00:56.576Z,80.55
2023-03-26T11:04:03.935Z,76.36
2023-03-26T11:07:11.266Z,77.52
2023-03-26T11:10:18.837Z,78.13
2023-03-26T11:13:27.825Z,78.75
2023-03-26T11:16:35.911Z,78.44
2023-03-26T11:19:43.519Z,78.17
2023-03-26T11:22:52.781Z,81.13
2023-03-26T11:26:00.055Z,80.42
2023-03-26T11:29:31.870Z,77.76
2023-03-26T11:32:12.756Z,76.84
2023-03-26T11:35:39.769Z,78.95
2023-03-26T11:38:24.730Z,77.83
2023-03-26T11:41:33.610Z,78.23
2023-03-26T11:44:41.045Z,75.75
2023-03-26T11:47:47.962Z,75.04
2023-03-26T11:50:55.846Z,74.63
2023-03-26T11:54:04.757Z,76.32
2023-03-26T11:57:11.743Z,75.51
2023-03-26T12:00:19.401Z,74.08
2023-03-26T12:03:28.113Z,74.29
2023-03-26T12:06:35.427Z,72.69
2023-03-26T12:09:44.050Z,76.06
2023-03-26T12:12:52.696Z,74.73
2023-03-26T12:16:00.016Z,74.08
2023-03-26T12:19:06.885Z,74.38
2023-03-26T12:22:15.466Z,74.18
2023-03-26T12:25:22.364Z,76.73
2023-03-26T12:28:29.597Z,75.68
2023-03-26T12:31:37.412Z,76.50
2023-03-26T12:34:46.199Z,73.84
2023-03-26T12:37:53.441Z,73.40
2023-03-26T12:41:01.008Z,71.97
2023-03-26T12:44:50.183Z,72.79
2023-03-26T12:47:59.167Z,74.15
2023-03-26T12:50:34.573Z,76.97
2023-03-26T12:53:26.536Z,74.52
2023-03-26T12:56:33.343Z,74.86
2023-03-26T12:59:40.868Z,73.16
2023-03-26T13:02:49.669Z,72.28
2023-03-26T13:05:57.152Z,75.95
2023-03-26T13:09:04.927Z,75.61
2023-03-26T13:12:12.439Z,76.32
2023-03-26T13:15:21.406Z,75.82
2023-03-26T13:18:29.074Z,72.96
2023-03-26T13:21:36.529Z,73.10
2023-03-26T13:24:45.356Z,76.09
2023-03-26T13:27:52.658Z,76.19
2023-03-26T13:31:00.479Z,75.58
2023-03-26T13:34:09.359Z,75.37
2023-03-26T13:37:16.512Z,74.66
2023-03-26T13:40:24.376Z,76.36
2023-03-26T13:43:32.885Z,74.22
2023-03-26T13:46:40.597Z,73.50
2023-03-26T13:49:48.558Z,75.17
2023-03-26T13:52:55.785Z,74.87
2023-03-26T13:56:05.296Z,75.75
2023-03-26T13:59:12.775Z,77.69
2023-03-26T14:02:19.979Z,75.54
2023-03-26T14:05:29.227Z,73.50
2023-03-26T14:08:36.513Z,73.33
2023-03-26T14:11:43.808Z,75.07
2023-03-26T14:14:53.229Z,77.79
2023-03-26T14:18:00.476Z,74.32
2023-03-26T14:21:07.724Z,77.11
2023-03-26T14:24:16.452Z,77.01
2023-03-26T14:27:24.136Z,79.16
2023-03-26T14:30:31.613Z,81.71
2023-03-26T14:33:40.417Z,82.87
2023-03-26T14:36:48.327Z,84.85
2023-03-26T14:39:55.751Z,85.50
2023-03-26T14:43:03.252Z,86.32
2023-03-26T14:46:12.744Z,86.36
2023-03-26T14:49:19.955Z,87.22
2023-03-26T14:52:27.789Z,88.49
2023-03-26T14:55:37.177Z,87.61
2023-03-26T14:58:44.607Z,89.29
2023-03-26T15:01:52.486Z,90.42
2023-03-26T15:05:01.269Z,92.00
2023-03-26T15:08:08.568Z,93.38
2023-03-26T15:11:16.144Z,95.02
2023-03-26T15:14:25.224Z,95.89
2023-03-26T15:17:33.037Z,96.75
2023-03-26T15:20:40.564Z,97.67
2023-03-26T15:23:48.286Z,98.33
2023-03-26T15:26:57.468Z,98.75
2023-03-26T15:30:04.888Z,99.37
2023-03-26T15:33:12.395Z,99.26
2023-03-26T15:36:22.001Z,99.31
2023-03-26T15:39:29.224Z,99.41
2023-03-26T15:42:38.305Z,99.10
2023-03-26T15:45:47.719Z,99.72
2023-03-26T15:48:54.935Z,99.72
2023-03-26T15:52:02.863Z,99.46
2023-03-26T15:55:12.323Z,99.56
2023-03-26T15:58:19.444Z,99.93
2023-03-26T16:01:27.478Z,99.87
2023-03-26T16:04:35.863Z,99.87
2023-03-26T16:07:44.502Z,99.97
2023-03-26T16:10:52.487Z,99.77
2023-03-26T16:14:00.456Z,99.66
2023-03-26T16:17:09.100Z,99.97
2023-03-26T16:20:17.246Z,99.99
2023-03-26T16:23:24.685Z,99.97
2023-03-26T16:26:34.740Z,99.99
2023-03-26T16:29:45.038Z,99.99
2023-03-26T16:32:52.730Z,99.99
2023-03-26T16:36:01.777Z,99.99
2023-03-26T16:39:09.343Z,99.99
2023-03-26T16:42:16.945Z,99.99
2023-03-26T16:45:26.008Z,99.66
2023-03-26T16:48:33.146Z,99.62
2023-03-26T16:51:41.123Z,99.05
2023-03-26T16:54:48.644Z,97.61
2023-03-26T16:57:57.558Z,96.89
2023-03-26T17:01:05.345Z,95.65
2023-03-26T17:04:12.841Z,95.34
2023-03-26T17:07:22.015Z,95.24
2023-03-26T17:10:29.933Z,95.45
2023-03-26T17:13:37.466Z,93.59
2023-03-26T17:16:46.562Z,93.90
2023-03-26T17:19:54.072Z,92.50
2023-03-26T17:23:02.062Z,91.47
2023-03-26T17:26:11.111Z,91.68
2023-03-26T17:29:18.676Z,92.82
2023-03-26T17:32:26.541Z,92.14
2023-03-26T17:35:34.273Z,91.72
2023-03-26T17:38:45.221Z,91.21
2023-03-26T17:41:53.349Z,90.90
2023-03-26T17:45:00.377Z,88.53
2023-03-26T17:48:09.697Z,89.46
2023-03-26T17:51:17.604Z,89.87
2023-03-26T17:54:24.556Z,91.93
2023-03-26T17:57:33.752Z,87.85
2023-03-26T18:00:41.137Z,89.87
2023-03-26T18:03:48.580Z,87.09
2023-03-26T18:06:57.668Z,87.09
2023-03-26T18:10:04.682Z,87.65
2023-03-26T18:13:12.118Z,87.75
2023-03-26T18:16:19.704Z,87.24
2023-03-26T18:19:29.040Z,85.89
2023-03-26T18:22:36.375Z,84.66
2023-03-26T18:25:43.727Z,86.00
2023-03-26T18:28:52.709Z,85.79
2023-03-26T18:31:59.799Z,88.26
2023-03-26T18:35:07.777Z,87.34
2023-03-26T18:38:17.332Z,85.38
2023-03-26T18:41:24.502Z,85.01
2023-03-26T18:44:31.844Z,87.59
2023-03-26T18:47:40.700Z,88.92
2023-03-26T18:50:47.910Z,88.41
2023-03-26T18:53:56.512Z,87.99
2023-03-26T18:57:04.101Z,87.69
2023-03-26T19:00:11.234Z,89.03
2023-03-26T19:03:19.174Z,89.44
2023-03-26T19:06:26.765Z,89.28
2023-03-26T19:09:35.796Z,90.31
2023-03-26T19:12:43.068Z,87.83
2023-03-26T19:15:51.038Z,89.89
2023-03-26T19:18:59.947Z,87.11
2023-03-26T19:22:07.275Z,87.32
2023-03-26T19:25:14.754Z,87.52
2023-03-26T19:28:23.305Z,87.73
2023-03-26T19:31:30.550Z,87.93
2023-03-26T19:34:38.475Z,86.80
2023-03-26T19:37:46.851Z,86.49
2023-03-26T19:40:57.056Z,87.52
2023-03-26T19:44:05.143Z,85.05
2023-03-26T19:47:12.507Z,83.50
2023-03-26T19:50:21.427Z,85.25
2023-03-26T19:53:28.692Z,86.02
2023-03-26T19:56:36.366Z,81.17
2023-03-26T19:59:45.112Z,81.79
2023-03-26T20:02:47.541Z,80.96
2023-03-26T20:05:55.312Z,83.03
2023-03-26T20:09:03.681Z,81.58
2023-03-26T20:12:11.155Z,83.48
2023-03-26T20:15:19.086Z,78.42
2023-03-26T20:18:26.762Z,80.52
2023-03-26T20:21:36.038Z,81.04
2023-03-26T20:24:43.748Z,81.14
2023-03-26T20:27:50.726Z,80.25
2023-03-26T20:31:00.022Z,80.25
2023-03-26T20:34:07.675Z,79.73
2023-03-26T20:37:14.883Z,80.80
2023-03-26T20:40:24.137Z,80.80
2023-03-26T20:43:31.410Z,80.74
2023-03-26T20:46:38.727Z,81.05
2023-03-26T20:49:47.982Z,82.90
2023-03-26T20:52:55.680Z,81.87
2023-03-26T20:56:03.204Z,83.05
2023-03-26T20:59:12.210Z,84.60
2023-03-26T21:02:19.507Z,82.74
2023-03-26T21:05:26.870Z,83.40
2023-03-26T21:08:33.801Z,82.46
2023-03-26T21:11:42.888Z,82.26
2023-03-26T21:14:50.571Z,83.50
2023-03-26T21:17:57.576Z,84.12
2023-03-26T21:21:17.990Z,83.61
2023-03-26T21:24:11.394Z,83.23
2023-03-26T21:27:18.829Z,84.06
2023-03-26T21:30:27.725Z,83.23
2023-03-26T21:33:34.982Z,83.12
2023-03-26T21:36:42.210Z,83.23
2023-03-26T21:39:51.156Z,84.68
2023-03-26T21:42:58.164Z,83.99
2023-03-26T21:46:05.607Z,83.68
2023-03-26T21:49:13.276Z,84.20
2023-03-26T21:52:21.945Z,84.61
2023-03-26T21:55:29.276Z,84.72
2023-03-26T21:58:36.188Z,83.78
2023-03-26T22:01:45.280Z,84.72
2023-03-26T22:04:52.541Z,84.30
2023-03-26T22:07:59.540Z,85.13
2023-03-26T22:11:08.977Z,86.17
2023-03-26T22:14:16.490Z,86.00
2023-03-26T22:17:24.140Z,86.17
2023-03-26T22:20:33.106Z,86.58
2023-03-26T22:23:40.343Z,86.62
2023-03-26T22:26:47.826Z,86.10
2023-03-26T22:29:55.578Z,85.27
2023-03-26T22:33:04.354Z,85.17
2023-03-26T22:36:22.770Z,85.69
2023-03-26T22:39:16.220Z,85.38
2023-03-26T22:42:25.246Z,87.04
2023-03-26T22:45:32.578Z,86.83
2023-03-26T22:48:39.806Z,86.10
2023-03-26T22:51:48.965Z,87.04
2023-03-26T22:54:55.857Z,85.63
2023-03-26T22:58:03.561Z,86.93
2023-03-26T23:01:12.769Z,86.83
2023-03-26T23:04:31.423Z,87.87
2023-03-26T23:07:24.529Z,86.31
2023-03-26T23:10:31.788Z,86.00
2023-03-26T23:13:40.170Z,86.41
2023-03-26T23:16:47.877Z,86.10
2023-03-26T23:19:55.209Z,85.79
2023-03-26T23:23:03.916Z,85.58
2023-03-26T23:26:12.099Z,86.83
2023-03-26T23:29:19.427Z,85.89
2023-03-26T23:32:28.385Z,85.27
2023-03-26T23:35:35.689Z,86.00
2023-03-26T23:38:44.126Z,84.86
2023-03-26T23:41:53.538Z,83.65
2023-03-26T23:45:00.545Z,84.17
2023-03-26T23:48:08.219Z,84.90
2023-03-26T23:51:17.140Z,84.90
2023-03-26T23:54:24.132Z,83.86
2023-03-26T23:57:31.804Z,82.93
